Time;durP1;ratioP1;P1;durP2;ratioP2;P2;SDS_P1;SDS_P2;PMS_P1;PMS_P2;Temp;Humidity;BMP_temperature;BMP_pressure;BME280_temperature;BME280_humidity;BME280_pressure;Samples;Min_cycle;Max_cycle;Signal;HPM_P1;HPM_P2
2023/10/28 00:07:37;;;;;;;13.10;6.53;;;10.10;99.90;;;;;;20173076;29;20828;-43
2023/10/28 00:17:38;;;;;;;11.93;5.78;;;10.10;99.90;;;;;;20176981;29;20059;-43
2023/10/28 00:27:40;;;;;;;15.57;6.65;;;10.10;99.90;;;;;;20170756;29;21190;-43
2023/10/28 00:37:42;;;;;;;14.32;5.70;;;10.10;99.90;;;;;;20175328;29;20044;-42
2023/10/28 00:47:45;;;;;;;11.73;5.10;;;10.20;99.90;;;;;;20170378;29;20083;-43
2023/10/28 00:57:46;;;;;;;11.75;5.43;;;10.20;99.90;;;;;;20168421;29;20572;-43
2023/10/28 01:07:48;;;;;;;13.63;6.45;;;10.20;99.90;;;;;;20165113;29;20152;-43
2023/10/28 01:17:49;;;;;;;12.98;6.35;;;10.30;99.90;;;;;;20161839;29;20137;-43
2023/10/28 01:27:50;;;;;;;14.27;6.60;;;10.40;99.90;;;;;;20167903;29;20053;-43
2023/10/28 01:37:51;;;;;;;16.33;7.57;;;10.40;99.90;;;;;;20154174;29;20881;-43
2023/10/28 01:47:52;;;;;;;19.23;7.93;;;10.50;99.90;;;;;;20153814;29;20565;-44
2023/10/28 01:57:52;;;;;;;16.05;9.57;;;10.70;99.90;;;;;;20154620;29;20155;-44
2023/10/28 02:07:53;;;;;;;26.13;11.88;;;10.80;99.90;;;;;;20149223;29;20060;-43
2023/10/28 02:17:54;;;;;;;22.00;10.73;;;10.90;99.90;;;;;;20143606;29;20041;-42
2023/10/28 02:27:55;;;;;;;18.20;10.05;;;10.90;99.90;;;;;;20149972;29;20120;-42
2023/10/28 02:37:55;;;;;;;24.10;10.85;;;10.80;99.90;;;;;;20149226;29;20056;-43
2023/10/28 02:47:56;;;;;;;23.45;11.02;;;10.90;99.90;;;;;;20145016;29;20108;-43
2023/10/28 02:57:56;;;;;;;18.05;10.15;;;11.00;99.90;;;;;;20156730;29;20334;-43
2023/10/28 03:07:57;;;;;;;21.73;10.23;;;10.90;99.90;;;;;;20147790;29;20339;-43
2023/10/28 03:17:57;;;;;;;22.67;9.35;;;11.00;99.90;;;;;;20142511;29;20045;-43
2023/10/28 03:28:01;;;;;;;18.73;9.15;;;11.00;99.90;;;;;;20147397;29;20052;-43
2023/10/28 03:38:02;;;;;;;15.43;7.65;;;11.10;99.90;;;;;;20153012;29;20068;-42
2023/10/28 03:48:02;;;;;;;16.90;9.30;;;11.10;99.90;;;;;;20149703;29;20432;-42
2023/10/28 03:58:03;;;;;;;15.55;7.80;;;11.10;99.90;;;;;;20155444;29;20507;-43
2023/10/28 04:08:05;;;;;;;13.07;7.55;;;11.10;99.90;;;;;;20168212;29;20536;-43
2023/10/28 04:18:05;;;;;;;10.80;6.60;;;11.00;99.90;;;;;;20169987;29;20485;-43
2023/10/28 04:28:07;;;;;;;12.57;6.23;;;11.10;99.90;;;;;;20170029;29;20817;-43
2023/10/28 04:38:07;;;;;;;11.63;6.28;;;11.10;99.90;;;;;;20176588;29;21015;-42
2023/10/28 04:48:10;;;;;;;12.60;6.60;;;11.00;99.90;;;;;;20162054;29;20193;-43
2023/10/28 04:58:10;;;;;;;10.27;5.80;;;11.10;99.90;;;;;;20160970;29;20048;-44
2023/10/28 05:08:11;;;;;;;10.07;5.63;;;11.10;99.90;;;;;;20160373;29;20045;-43
2023/10/28 05:18:12;;;;;;;9.65;5.60;;;11.00;99.90;;;;;;20158775;29;20815;-44
2023/10/28 05:28:12;;;;;;;9.07;5.32;;;11.00;99.90;;;;;;20161544;29;20128;-42
2023/10/28 05:38:13;;;;;;;8.73;5.25;;;11.10;99.90;;;;;;20159898;29;20048;-42
2023/10/28 05:48:13;;;;;;;9.82;4.90;;;11.10;99.90;;;;;;20162565;29;20088;-43
2023/10/28 05:58:14;;;;;;;8.25;3.80;;;11.10;99.90;;;;;;20176240;29;20061;-42
2023/10/28 06:08:14;;;;;;;7.95;3.70;;;11.10;99.90;;;;;;20126044;29;20061;-42
2023/10/28 06:18:15;;;;;;;8.00;4.10;;;11.10;99.90;;;;;;20165760;29;20056;-43
2023/10/28 06:28:17;;;;;;;7.32;3.88;;;11.00;99.90;;;;;;20178389;29;21171;-42
2023/10/28 06:38:18;;;;;;;7.30;3.42;;;11.10;99.90;;;;;;20170862;29;20057;-42
2023/10/28 06:48:19;;;;;;;9.25;4.35;;;11.10;99.90;;;;;;20194655;29;20060;-42
2023/10/28 06:58:20;;;;;;;11.02;3.85;;;11.30;99.90;;;;;;20196699;29;20092;-43
2023/10/28 07:08:21;;;;;;;7.28;3.28;;;11.20;99.90;;;;;;20189630;29;20067;-42
2023/10/28 07:18:22;;;;;;;7.70;3.00;;;11.20;99.90;;;;;;20186553;29;20079;-42
2023/10/28 07:28:24;;;;;;;8.02;3.22;;;11.30;99.90;;;;;;20183298;29;20068;-41
2023/10/28 07:38:25;;;;;;;6.53;3.20;;;11.40;99.90;;;;;;20195928;29;20515;-42
2023/10/28 07:48:26;;;;;;;8.35;2.75;;;11.50;99.90;;;;;;20215254;29;20099;-43
2023/10/28 07:58:26;;;;;;;7.65;2.60;;;11.60;99.90;;;;;;20185019;29;20068;-42
2023/10/28 08:08:30;;;;;;;5.65;2.40;;;11.60;99.90;;;;;;20189298;29;20139;-42
2023/10/28 08:18:31;;;;;;;10.82;2.63;;;11.60;99.90;;;;;;20177964;29;20044;-42
2023/10/28 08:28:32;;;;;;;7.15;2.85;;;11.70;99.90;;;;;;20181307;29;20183;-42
2023/10/28 08:38:32;;;;;;;11.57;2.30;;;12.00;99.90;;;;;;20191595;29;20060;-43
2023/10/28 08:48:34;;;;;;;9.95;2.30;;;12.00;99.90;;;;;;20191316;29;20069;-43
2023/10/28 08:58:37;;;;;;;9.20;2.55;;;12.20;99.90;;;;;;20180847;29;20060;-42
2023/10/28 09:08:38;;;;;;;7.13;2.50;;;12.30;99.90;;;;;;20187546;29;20143;-42
2023/10/28 09:18:39;;;;;;;7.53;2.63;;;12.40;99.90;;;;;;20177688;29;20071;-42
2023/10/28 09:28:44;;;;;;;9.23;3.80;;;12.60;97.40;;;;;;20169419;29;20397;-42
2023/10/28 09:38:46;;;;;;;8.13;3.03;;;13.00;84.80;;;;;;20182119;29;20049;-42
2023/10/28 09:48:49;;;;;;;10.27;3.10;;;13.20;70.90;;;;;;20184644;29;20049;-42
2023/10/28 09:59:00;;;;;;;8.70;2.78;;;13.20;50.70;;;;;;20165811;29;20060;-42
2023/10/28 10:09:01;;;;;;;12.05;4.15;;;13.30;48.20;;;;;;20177543;29;20643;-42
2023/10/28 10:19:10;;;;;;;10.20;2.90;;;13.50;27.90;;;;;;20187414;29;20053;-42
2023/10/28 10:29:11;;;;;;;10.23;2.80;;;13.40;27.20;;;;;;20189556;29;20074;-42
2023/10/28 10:39:20;;;;;;;8.52;3.10;;;13.40;22.30;;;;;;20173401;29;20069;-42
2023/10/28 10:49:21;;;;;;;14.45;4.07;;;13.50;22.40;;;;;;20176956;29;20090;-43
2023/10/28 10:59:21;;;;;;;8.75;3.00;;;13.50;19.10;;;;;;20195286;29;20203;-42
2023/10/28 11:09:22;;;;;;;7.00;2.63;;;13.50;15.50;;;;;;20195614;29;20120;-42
2023/10/28 11:19:22;;;;;;;6.67;2.50;;;13.60;4.00;;;;;;20185324;29;20302;-42
2023/10/28 11:29:23;;;;;;;5.17;2.40;;;13.60;1.00;;;;;;20189834;29;20461;-42
2023/10/28 11:39:24;;;;;;;5.50;2.17;;;13.60;1.00;;;;;;20198566;29;20846;-42
2023/10/28 11:49:24;;;;;;;8.38;2.60;;;13.60;1.00;;;;;;20193766;29;20060;-43
2023/10/28 11:59:25;;;;;;;7.75;1.75;;;13.60;1.00;;;;;;20185243;29;20646;-43
2023/10/28 12:09:27;;;;;;;31.02;8.95;;;13.60;1.00;;;;;;20180726;29;20041;-43
2023/10/28 12:19:28;;;;;;;14.80;3.00;;;13.70;1.00;;;;;;20197023;29;20044;-42
2023/10/28 12:29:28;;;;;;;7.93;2.30;;;14.00;1.00;;;;;;20194463;29;20467;-42
2023/10/28 12:39:29;;;;;;;8.05;2.25;;;14.10;1.00;;;;;;20191271;29;20516;-43
2023/10/28 12:49:29;;;;;;;8.05;2.30;;;14.10;1.00;;;;;;20181125;29;20056;-43
2023/10/28 12:59:30;;;;;;;13.32;2.63;;;14.00;1.00;;;;;;20211876;29;20104;-43
2023/10/28 13:09:31;;;;;;;8.57;2.00;;;13.90;1.00;;;;;;20196582;29;20042;-42
2023/10/28 13:19:31;;;;;;;12.80;2.50;;;13.90;1.00;;;;;;20195006;29;20049;-43
2023/10/28 13:29:32;;;;;;;14.90;3.10;;;14.00;1.00;;;;;;20172504;29;20490;-43
2023/10/28 13:39:32;;;;;;;14.05;2.38;;;13.90;1.00;;;;;;20164596;29;20087;-43
2023/10/28 13:49:33;;;;;;;11.57;3.45;;;13.90;1.00;;;;;;20178915;29;20167;-43
2023/10/28 13:59:34;;;;;;;16.05;2.63;;;14.10;1.00;;;;;;20182474;29;20523;-43
2023/10/28 14:09:36;;;;;;;11.50;2.70;;;14.10;1.00;;;;;;20195823;29;20529;-42
2023/10/28 14:19:36;;;;;;;10.13;2.67;;;14.00;1.00;;;;;;20188546;29;20462;-42
2023/10/28 14:29:37;;;;;;;9.00;2.67;;;14.10;1.00;;;;;;20165476;29;20512;-43
2023/10/28 14:39:37;;;;;;;18.38;4.00;;;14.50;1.00;;;;;;20188745;29;20498;-43
2023/10/28 14:49:38;;;;;;;16.95;3.00;;;14.70;1.00;;;;;;20178126;29;20053;-42
2023/10/28 14:59:38;;;;;;;10.57;2.08;;;14.80;1.00;;;;;;20185217;29;20434;-42
2023/10/28 15:09:39;;;;;;;10.25;2.50;;;14.50;1.00;;;;;;20190514;29;20421;-43
2023/10/28 15:19:40;;;;;;;9.50;2.53;;;14.30;1.00;;;;;;20186019;29;20059;-43
2023/10/28 15:29:40;;;;;;;17.35;2.95;;;14.10;1.00;;;;;;20186104;29;20048;-43
2023/10/28 15:39:41;;;;;;;14.45;3.42;;;13.90;1.00;;;;;;20172255;29;20109;-43
2023/10/28 15:49:41;;;;;;;15.98;3.90;;;13.70;1.00;;;;;;20179640;29;20060;-42
2023/10/28 15:59:42;;;;;;;10.75;2.58;;;13.60;1.00;;;;;;20195373;29;20049;-42
2023/10/28 16:09:42;;;;;;;13.40;2.92;;;13.50;1.00;;;;;;20197487;29;20441;-43
2023/10/28 16:19:45;;;;;;;14.90;2.70;;;13.40;1.00;;;;;;20198454;29;20495;-43
2023/10/28 16:29:46;;;;;;;8.55;2.38;;;13.40;1.00;;;;;;20193823;29;20055;-43
2023/10/28 16:39:46;;;;;;;11.07;2.85;;;13.30;1.00;;;;;;20185462;29;20246;-43
2023/10/28 16:49:47;;;;;;;15.52;2.35;;;13.20;1.00;;;;;;20177141;29;20072;-43
2023/10/28 16:59:49;;;;;;;11.63;2.53;;;13.10;1.00;;;;;;20182548;29;20041;-43
2023/10/28 17:09:51;;;;;;;12.77;2.90;;;13.00;1.00;;;;;;20174660;29;20225;-43
2023/10/28 17:19:52;;;;;;;10.82;2.70;;;13.00;1.00;;;;;;20181674;29;20048;-42
2023/10/28 17:29:53;;;;;;;9.93;3.05;;;12.90;1.00;;;;;;20180402;29;20055;-43
2023/10/28 17:39:53;;;;;;;8.13;2.58;;;12.70;1.00;;;;;;20160126;29;20049;-43
2023/10/28 17:49:55;;;;;;;9.95;2.78;;;12.80;1.00;;;;;;20175639;29;20215;-43
2023/10/28 17:59:56;;;;;;;10.85;3.15;;;12.80;1.00;;;;;;20169288;29;20505;-43
2023/10/28 18:09:56;;;;;;;7.63;2.30;;;12.70;1.00;;;;;;20176358;29;20582;-43
2023/10/28 18:19:57;;;;;;;10.48;2.65;;;12.70;1.00;;;;;;20170570;29;20476;-42
2023/10/28 18:29:57;;;;;;;11.87;3.23;;;12.80;1.00;;;;;;20177171;29;20045;-43
2023/10/28 18:39:58;;;;;;;10.77;2.65;;;12.70;1.00;;;;;;20171616;29;20099;-43
2023/10/28 18:49:59;;;;;;;8.52;2.40;;;12.70;1.00;;;;;;20174497;29;20060;-42
2023/10/28 18:59:59;;;;;;;6.95;2.05;;;12.60;1.00;;;;;;20175668;29;20179;-43
2023/10/28 19:10:02;;;;;;;5.50;1.92;;;12.50;1.60;;;;;;20152613;29;20047;-43
2023/10/28 19:20:03;;;;;;;6.88;2.63;;;12.50;7.60;;;;;;20171601;29;20048;-43
2023/10/28 19:30:04;;;;;;;9.10;2.15;;;12.60;8.40;;;;;;20186189;29;20346;-43
2023/10/28 19:40:05;;;;;;;4.63;1.83;;;12.50;15.90;;;;;;20183002;29;20104;-42
2023/10/28 19:50:06;;;;;;;4.90;1.80;;;12.50;23.60;;;;;;20173855;29;20056;-42
2023/10/28 20:00:11;;;;;;;5.93;1.70;;;12.60;18.50;;;;;;20198136;29;20176;-43
2023/10/28 20:10:11;;;;;;;4.85;1.90;;;12.60;24.90;;;;;;20181198;29;20045;-42
2023/10/28 20:20:13;;;;;;;4.17;1.80;;;12.50;43.20;;;;;;20182789;29;20174;-43
2023/10/28 20:30:15;;;;;;;2.80;1.42;;;12.40;72.20;;;;;;20172052;29;21044;-43
2023/10/28 20:40:16;;;;;;;3.47;1.50;;;12.30;99.90;;;;;;20174579;29;20048;-42
2023/10/28 20:50:16;;;;;;;4.13;1.83;;;12.20;99.90;;;;;;20197762;29;20607;-43
2023/10/28 21:00:18;;;;;;;4.72;2.40;;;12.10;99.90;;;;;;20179518;29;20642;-44
2023/10/28 21:10:18;;;;;;;6.50;2.80;;;11.90;99.90;;;;;;20180088;29;20048;-43
2023/10/28 21:20:19;;;;;;;4.60;2.73;;;12.00;99.90;;;;;;20184667;29;20122;-43
2023/10/28 21:30:19;;;;;;;14.47;5.40;;;11.90;99.90;;;;;;20183752;29;20041;-44
2023/10/28 21:40:20;;;;;;;17.83;7.00;;;12.00;99.90;;;;;;20185535;29;20611;-45
2023/10/28 21:50:21;;;;;;;6.60;2.75;;;12.00;99.90;;;;;;20175587;29;20273;-43
2023/10/28 22:10:43;;;;;;;5.03;2.92;;;12.00;99.90;;;;;;20180694;29;20115;-41
2023/10/28 22:20:44;;;;;;;6.22;3.05;;;12.10;99.90;;;;;;20197177;29;20048;-42
2023/10/28 22:30:45;;;;;;;4.30;2.78;;;12.10;99.90;;;;;;20200231;29;20390;-45
2023/10/28 22:40:46;;;;;;;4.07;2.70;;;12.20;99.90;;;;;;20194051;29;20136;-43
2023/10/28 22:50:46;;;;;;;8.23;2.40;;;12.20;99.90;;;;;;20194809;29;20124;-41
2023/10/28 23:00:47;;;;;;;7.95;2.65;;;12.40;99.90;;;;;;20180332;29;20045;-42
2023/10/28 23:10:47;;;;;;;6.80;1.98;;;12.40;99.90;;;;;;20179809;29;20056;-43
2023/10/28 23:20:50;;;;;;;3.08;1.73;;;12.50;99.90;;;;;;20182633;29;20139;-43
2023/10/28 23:30:51;;;;;;;5.97;1.52;;;12.60;99.90;;;;;;20189379;29;20049;-42
2023/10/28 23:40:51;;;;;;;3.73;1.63;;;12.80;99.90;;;;;;20179724;29;20147;-42
2023/10/28 23:50:52;;;;;;;2.50;1.30;;;13.00;99.90;;;;;;20180105;29;20520;-42
